BON weather

Flamingo International Airport
Kralendijk, Caribbean Netherlands

Public forecast

Using degrees Celsius for public forecast. Weather courtesy of forecast.io.

METAR (pilot weather report)

Retrieved 2019/08/24 16:55 UTC (26 minutes ago):

TNCB 241655Z 10017KT 070V140 CAVOK 32/24 Q1013

TAF (pilot weather forecast)

Retrieved 2019/08/24 12:27 UTC (5 hours ago):

TAF TAF TNCB 241056Z 2412/2518 10018KT 9999 SCT020 PROB30 TEMPO 2412/2415 6000 SHRA SCT018CB